Terminal Aerodrome Forecast
Issued by NWS

Home | Current Version | Previous Version | Text Only | Print | Product List | Glossary On
Versions: 1 2 3 4 5 6 7 8 9 10 11 12 13 14 15 16
000
FTUS43 KLSX 291505 AAA
TAFSUS
TAF AMD
KSUS 291505Z 2915/3012 35007KT P6SM SCT040 SCT080
     FM291800 34007KT P6SM VCTS BKN040CB
     FM292100 35009KT P6SM SCT050
     FM300200 34003KT P6SM SCT150=

USA.gov is the U.S. government's official web portal to all federal, state and local government web resources and services.